sensor_id;sensor_type;location;lat;lon;timestamp;pressure;altitude;pressure_sealevel;temperature;humidity
4814;BME280;15375;48.540;9.268;2023-04-28T00:02:01;97179.13;;;10.34;100.00
4814;BME280;15375;48.540;9.268;2023-04-28T00:04:26;97135.88;;;10.16;100.00
4814;BME280;15375;48.540;9.268;2023-04-28T00:06:52;97135.69;;;10.04;100.00
4814;BME280;15375;48.540;9.268;2023-04-28T00:09:17;97130.25;;;10.04;100.00
4814;BME280;15375;48.540;9.268;2023-04-28T00:11:44;97157.66;;;10.36;100.00
4814;BME280;15375;48.540;9.268;2023-04-28T00:14:10;97165.69;;;10.43;100.00
4814;BME280;15375;48.540;9.268;2023-04-28T00:16:36;97117.91;;;10.19;100.00
4814;BME280;15375;48.540;9.268;2023-04-28T00:19:01;97117.31;;;10.27;100.00
4814;BME280;15375;48.540;9.268;2023-04-28T00:21:26;97142.09;;;10.37;100.00
4814;BME280;15375;48.540;9.268;2023-04-28T00:23:53;97154.94;;;10.36;100.00
4814;BME280;15375;48.540;9.268;2023-04-28T00:26:18;97142.84;;;10.17;100.00
4814;BME280;15375;48.540;9.268;2023-04-28T00:28:43;97154.03;;;10.23;100.00
4814;BME280;15375;48.540;9.268;2023-04-28T00:31:10;97152.00;;;10.27;100.00
4814;BME280;15375;48.540;9.268;2023-04-28T00:33:37;97142.84;;;10.17;100.00
4814;BME280;15375;48.540;9.268;2023-04-28T00:36:02;97160.03;;;10.34;100.00
4814;BME280;15375;48.540;9.268;2023-04-28T00:38:28;97158.34;;;10.40;100.00
4814;BME280;15375;48.540;9.268;2023-04-28T00:40:53;97125.56;;;10.44;100.00
4814;BME280;15375;48.540;9.268;2023-04-28T00:43:19;97114.38;;;10.38;100.00
4814;BME280;15375;48.540;9.268;2023-04-28T00:45:44;97127.72;;;10.52;100.00
4814;BME280;15375;48.540;9.268;2023-04-28T00:48:09;97123.97;;;10.46;100.00
4814;BME280;15375;48.540;9.268;2023-04-28T00:50:35;97101.91;;;10.21;100.00
4814;BME280;15375;48.540;9.268;2023-04-28T00:53:01;97134.31;;;10.35;100.00
4814;BME280;15375;48.540;9.268;2023-04-28T00:55:30;97118.44;;;10.30;100.00
4814;BME280;15375;48.540;9.268;2023-04-28T00:57:56;97137.94;;;10.48;100.00
4814;BME280;15375;48.540;9.268;2023-04-28T01:00:21;97101.56;;;10.19;100.00
4814;BME280;15375;48.540;9.268;2023-04-28T01:02:49;97101.06;;;10.24;100.00
4814;BME280;15375;48.540;9.268;2023-04-28T01:05:15;97127.03;;;10.48;100.00
4814;BME280;15375;48.540;9.268;2023-04-28T01:07:41;97109.28;;;10.40;100.00
4814;BME280;15375;48.540;9.268;2023-04-28T01:10:07;97112.22;;;10.49;100.00
4814;BME280;15375;48.540;9.268;2023-04-28T01:12:32;97132.94;;;10.63;100.00
4814;BME280;15375;48.540;9.268;2023-04-28T01:14:58;97115.28;;;10.51;100.00
4814;BME280;15375;48.540;9.268;2023-04-28T01:17:23;97121.41;;;10.55;100.00
4814;BME280;15375;48.540;9.268;2023-04-28T01:19:49;97101.81;;;10.44;100.00
4814;BME280;15375;48.540;9.268;2023-04-28T01:22:14;97109.13;;;10.47;100.00
4814;BME280;15375;48.540;9.268;2023-04-28T01:24:40;97101.66;;;10.51;100.00
4814;BME280;15375;48.540;9.268;2023-04-28T01:27:06;97077.41;;;10.37;100.00
4814;BME280;15375;48.540;9.268;2023-04-28T01:29:31;97084.34;;;10.42;100.00
4814;BME280;15375;48.540;9.268;2023-04-28T01:31:56;97091.53;;;10.52;100.00
4814;BME280;15375;48.540;9.268;2023-04-28T01:34:22;97106.28;;;10.70;100.00
4814;BME280;15375;48.540;9.268;2023-04-28T01:36:47;97074.66;;;10.57;100.00
4814;BME280;15375;48.540;9.268;2023-04-28T01:39:13;97095.03;;;10.68;100.00
4814;BME280;15375;48.540;9.268;2023-04-28T01:41:39;97079.25;;;10.60;100.00
4814;BME280;15375;48.540;9.268;2023-04-28T01:44:04;97097.00;;;10.68;100.00
4814;BME280;15375;48.540;9.268;2023-04-28T01:46:31;97063.97;;;10.46;100.00
4814;BME280;15375;48.540;9.268;2023-04-28T01:48:57;97067.38;;;10.50;100.00
4814;BME280;15375;48.540;9.268;2023-04-28T01:51:22;97065.44;;;10.51;100.00
4814;BME280;15375;48.540;9.268;2023-04-28T01:53:47;97093.88;;;10.69;100.00
4814;BME280;15375;48.540;9.268;2023-04-28T01:56:13;97077.72;;;10.59;100.00
4814;BME280;15375;48.540;9.268;2023-04-28T01:58:45;97084.63;;;10.63;100.00
4814;BME280;15375;48.540;9.268;2023-04-28T02:01:10;97088.03;;;10.67;100.00
4814;BME280;15375;48.540;9.268;2023-04-28T02:03:35;97063.81;;;10.53;100.00
4814;BME280;15375;48.540;9.268;2023-04-28T02:06:01;97053.13;;;10.43;100.00
4814;BME280;15375;48.540;9.268;2023-04-28T02:08:26;97084.63;;;10.63;100.00
4814;BME280;15375;48.540;9.268;2023-04-28T02:10:52;97073.53;;;10.54;100.00
4814;BME280;15375;48.540;9.268;2023-04-28T02:13:17;97085.13;;;10.58;100.00
4814;BME280;15375;48.540;9.268;2023-04-28T02:15:43;97077.88;;;10.52;100.00
4814;BME280;15375;48.540;9.268;2023-04-28T02:18:09;97071.88;;;10.41;100.00
4814;BME280;15375;48.540;9.268;2023-04-28T02:20:34;97079.63;;;10.42;100.00
4814;BME280;15375;48.540;9.268;2023-04-28T02:23:00;97071.81;;;10.44;100.00
4814;BME280;15375;48.540;9.268;2023-04-28T02:25:25;97061.81;;;10.38;100.00
4814;BME280;15375;48.540;9.268;2023-04-28T02:27:50;97052.72;;;10.44;100.00
4814;BME280;15375;48.540;9.268;2023-04-28T02:30:16;97007.97;;;10.25;100.00
4814;BME280;15375;48.540;9.268;2023-04-28T02:32:42;97062.75;;;10.67;100.00
4814;BME280;15375;48.540;9.268;2023-04-28T02:35:07;97058.91;;;10.64;100.00
4814;BME280;15375;48.540;9.268;2023-04-28T02:37:32;97028.94;;;10.45;100.00
4814;BME280;15375;48.540;9.268;2023-04-28T02:39:58;97039.72;;;10.52;100.00
4814;BME280;15375;48.540;9.268;2023-04-28T02:42:23;97066.66;;;10.66;100.00
4814;BME280;15375;48.540;9.268;2023-04-28T02:44:48;97071.06;;;10.60;100.00
4814;BME280;15375;48.540;9.268;2023-04-28T02:47:14;97034.50;;;10.41;100.00
4814;BME280;15375;48.540;9.268;2023-04-28T02:49:39;97027.66;;;10.33;100.00
4814;BME280;15375;48.540;9.268;2023-04-28T02:52:05;97059.31;;;10.47;100.00
4814;BME280;15375;48.540;9.268;2023-04-28T02:54:30;97067.72;;;10.52;100.00
4814;BME280;15375;48.540;9.268;2023-04-28T02:56:58;97038.13;;;10.35;100.00
4814;BME280;15375;48.540;9.268;2023-04-28T02:59:23;97036.00;;;10.26;100.00
4814;BME280;15375;48.540;9.268;2023-04-28T03:01:49;97056.38;;;10.38;100.00
4814;BME280;15375;48.540;9.268;2023-04-28T03:04:16;97061.66;;;10.45;100.00
4814;BME280;15375;48.540;9.268;2023-04-28T03:06:41;97059.63;;;10.49;100.00
4814;BME280;15375;48.540;9.268;2023-04-28T03:09:07;97063.03;;;10.53;100.00
4814;BME280;15375;48.540;9.268;2023-04-28T03:11:33;97070.44;;;10.52;100.00
4814;BME280;15375;48.540;9.268;2023-04-28T03:13:58;97062.22;;;10.56;100.00
4814;BME280;15375;48.540;9.268;2023-04-28T03:16:24;97056.81;;;10.52;100.00
4814;BME280;15375;48.540;9.268;2023-04-28T03:18:49;97062.13;;;10.59;100.00
4814;BME280;15375;48.540;9.268;2023-04-28T03:21:15;97010.19;;;10.31;100.00
4814;BME280;15375;48.540;9.268;2023-04-28T03:23:40;97053.59;;;10.57;100.00
4814;BME280;15375;48.540;9.268;2023-04-28T03:26:05;97046.88;;;10.62;100.00
4814;BME280;15375;48.540;9.268;2023-04-28T03:28:31;97051.97;;;10.60;100.00
4814;BME280;15375;48.540;9.268;2023-04-28T03:30:56;97041.56;;;10.55;100.00
4814;BME280;15375;48.540;9.268;2023-04-28T03:33:22;97059.59;;;10.68;100.00
4814;BME280;15375;48.540;9.268;2023-04-28T03:35:47;97063.34;;;10.74;100.00
4814;BME280;15375;48.540;9.268;2023-04-28T03:38:13;97045.78;;;10.59;100.00
4814;BME280;15375;48.540;9.268;2023-04-28T03:40:38;97021.13;;;10.47;100.00
4814;BME280;15375;48.540;9.268;2023-04-28T03:43:04;97046.78;;;10.65;100.00
4814;BME280;15375;48.540;9.268;2023-04-28T03:45:29;97002.78;;;10.31;100.00
4814;BME280;15375;48.540;9.268;2023-04-28T03:47:55;97040.81;;;10.54;100.00
4814;BME280;15375;48.540;9.268;2023-04-28T03:50:20;97048.13;;;10.57;100.00
4814;BME280;15375;48.540;9.268;2023-04-28T03:52:46;97068.09;;;10.70;100.00
4814;BME280;15375;48.540;9.268;2023-04-28T03:55:11;96997.56;;;10.20;100.00
4814;BME280;15375;48.540;9.268;2023-04-28T03:57:37;97056.19;;;10.64;100.00
4814;BME280;15375;48.540;9.268;2023-04-28T04:00:03;97018.03;;;10.45;100.00
4814;BME280;15375;48.540;9.268;2023-04-28T04:02:29;97029.91;;;10.54;100.00
4814;BME280;15375;48.540;9.268;2023-04-28T04:04:54;97037.22;;;10.57;100.00
4814;BME280;15375;48.540;9.268;2023-04-28T04:07:21;97034.38;;;10.64;100.00
4814;BME280;15375;48.540;9.268;2023-04-28T04:09:46;97017.72;;;10.59;100.00
4814;BME280;15375;48.540;9.268;2023-04-28T04:12:11;97032.47;;;10.61;100.00
4814;BME280;15375;48.540;9.268;2023-04-28T04:14:37;96997.00;;;10.45;100.00
4814;BME280;15375;48.540;9.268;2023-04-28T04:17:02;97032.91;;;10.76;100.00
4814;BME280;15375;48.540;9.268;2023-04-28T04:19:27;97039.81;;;10.80;100.00
4814;BME280;15375;48.540;9.268;2023-04-28T04:21:53;97017.63;;;10.62;100.00
4814;BME280;15375;48.540;9.268;2023-04-28T04:24:18;97030.03;;;10.67;100.00
4814;BME280;15375;48.540;9.268;2023-04-28T04:26:43;97041.53;;;10.74;100.00
4814;BME280;15375;48.540;9.268;2023-04-28T04:29:09;97033.19;;;10.81;100.00
4814;BME280;15375;48.540;9.268;2023-04-28T04:31:35;97013.03;;;10.75;100.00
4814;BME280;15375;48.540;9.268;2023-04-28T04:34:00;97033.25;;;10.94;100.00
4814;BME280;15375;48.540;9.268;2023-04-28T04:36:26;96993.28;;;10.71;100.00
4814;BME280;15375;48.540;9.268;2023-04-28T04:38:51;96934.97;;;10.33;100.00
4814;BME280;15375;48.540;9.268;2023-04-28T04:41:19;97032.56;;;10.90;100.00
4814;BME280;15375;48.540;9.268;2023-04-28T04:43:45;97017.81;;;10.87;100.00
4814;BME280;15375;48.540;9.268;2023-04-28T04:46:11;97032.41;;;10.97;100.00
4814;BME280;15375;48.540;9.268;2023-04-28T04:48:36;97034.72;;;10.99;100.00
4814;BME280;15375;48.540;9.268;2023-04-28T04:51:01;97029.31;;;10.95;100.00
4814;BME280;15375;48.540;9.268;2023-04-28T04:53:27;97020.97;;;10.86;100.00
4814;BME280;15375;48.540;9.268;2023-04-28T04:55:52;97007.50;;;10.79;100.00
4814;BME280;15375;48.540;9.268;2023-04-28T04:58:18;97031.91;;;10.86;100.00
4814;BME280;15375;48.540;9.268;2023-04-28T05:00:43;97033.44;;;10.87;100.00
4814;BME280;15375;48.540;9.268;2023-04-28T05:03:09;97035.72;;;10.88;100.00
4814;BME280;15375;48.540;9.268;2023-04-28T05:05:34;96983.97;;;10.53;100.00
4814;BME280;15375;48.540;9.268;2023-04-28T05:08:00;97010.31;;;10.75;100.00
4814;BME280;15375;48.540;9.268;2023-04-28T05:10:26;97023.63;;;10.89;100.00
4814;BME280;15375;48.540;9.268;2023-04-28T05:12:51;96952.09;;;10.50;100.00
4814;BME280;15375;48.540;9.268;2023-04-28T05:15:17;96986.97;;;10.74;100.00
4814;BME280;15375;48.540;9.268;2023-04-28T05:17:42;96944.63;;;10.54;100.00
4814;BME280;15375;48.540;9.268;2023-04-28T05:20:08;96998.91;;;10.97;100.00
4814;BME280;15375;48.540;9.268;2023-04-28T05:22:33;97011.00;;;10.96;100.00
4814;BME280;15375;48.540;9.268;2023-04-28T05:24:58;97003.31;;;10.90;100.00
4814;BME280;15375;48.540;9.268;2023-04-28T05:27:24;96988.06;;;10.93;100.00
4814;BME280;15375;48.540;9.268;2023-04-28T05:29:49;96988.31;;;10.99;100.00
4814;BME280;15375;48.540;9.268;2023-04-28T05:32:15;96995.53;;;11.05;100.00
4814;BME280;15375;48.540;9.268;2023-04-28T05:34:40;96983.44;;;11.06;100.00
4814;BME280;15375;48.540;9.268;2023-04-28T05:37:05;96998.94;;;11.25;100.00
4814;BME280;15375;48.540;9.268;2023-04-28T05:39:31;97005.66;;;11.37;100.00
4814;BME280;15375;48.540;9.268;2023-04-28T05:41:56;97004.03;;;11.39;100.00
4814;BME280;15375;48.540;9.268;2023-04-28T05:44:23;96987.06;;;11.32;100.00
4814;BME280;15375;48.540;9.268;2023-04-28T05:46:48;97000.78;;;11.44;100.00
4814;BME280;15375;48.540;9.268;2023-04-28T05:49:17;97004.50;;;11.50;100.00
4814;BME280;15375;48.540;9.268;2023-04-28T05:51:42;97018.56;;;11.65;100.00
4814;BME280;15375;48.540;9.268;2023-04-28T05:54:08;97005.00;;;11.62;100.00
4814;BME280;15375;48.540;9.268;2023-04-28T05:56:34;96999.44;;;11.65;100.00
4814;BME280;15375;48.540;9.268;2023-04-28T05:58:59;97012.50;;;11.74;100.00
4814;BME280;15375;48.540;9.268;2023-04-28T06:01:28;97019.06;;;11.76;100.00
4814;BME280;15375;48.540;9.268;2023-04-28T06:03:54;97025.94;;;11.81;100.00
4814;BME280;15375;48.540;9.268;2023-04-28T06:06:22;97018.84;;;11.83;100.00
4814;BME280;15375;48.540;9.268;2023-04-28T06:08:47;96982.19;;;11.68;100.00
4814;BME280;15375;48.540;9.268;2023-04-28T06:11:12;96990.09;;;11.79;100.00
4814;BME280;15375;48.540;9.268;2023-04-28T06:13:38;96991.44;;;11.87;100.00
4814;BME280;15375;48.540;9.268;2023-04-28T06:16:03;96990.38;;;11.97;100.00
4814;BME280;15375;48.540;9.268;2023-04-28T06:18:29;97004.72;;;12.13;100.00
4814;BME280;15375;48.540;9.268;2023-04-28T06:20:56;96990.72;;;12.11;100.00
4814;BME280;15375;48.540;9.268;2023-04-28T06:23:22;97006.72;;;12.26;100.00
4814;BME280;15375;48.540;9.268;2023-04-28T06:25:47;96971.72;;;12.08;100.00
4814;BME280;15375;48.540;9.268;2023-04-28T06:28:12;96989.78;;;12.31;100.00
4814;BME280;15375;48.540;9.268;2023-04-28T06:30:39;97001.03;;;12.45;100.00
4814;BME280;15375;48.540;9.268;2023-04-28T06:33:05;96952.03;;;12.13;100.00
4814;BME280;15375;48.540;9.268;2023-04-28T06:35:30;96967.00;;;12.34;100.00
4814;BME280;15375;48.540;9.268;2023-04-28T06:37:57;96987.91;;;12.53;100.00
4814;BME280;15375;48.540;9.268;2023-04-28T06:40:22;97001.13;;;12.67;100.00
4814;BME280;15375;48.540;9.268;2023-04-28T06:42:47;96983.75;;;12.48;100.00
4814;BME280;15375;48.540;9.268;2023-04-28T06:45:13;96992.28;;;12.63;100.00
4814;BME280;15375;48.540;9.268;2023-04-28T06:47:38;96984.06;;;12.63;100.00
4814;BME280;15375;48.540;9.268;2023-04-28T06:50:05;96981.66;;;12.65;100.00
4814;BME280;15375;48.540;9.268;2023-04-28T06:52:30;97000.34;;;12.79;100.00
4814;BME280;15375;48.540;9.268;2023-04-28T06:54:56;96999.16;;;12.80;100.00
4814;BME280;15375;48.540;9.268;2023-04-28T06:57:21;96964.47;;;12.64;100.00
4814;BME280;15375;48.540;9.268;2023-04-28T06:59:47;96892.44;;;12.21;100.00
4814;BME280;15375;48.540;9.268;2023-04-28T07:02:12;96975.84;;;12.75;100.00
4814;BME280;15375;48.540;9.268;2023-04-28T07:04:38;96969.94;;;12.77;100.00
4814;BME280;15375;48.540;9.268;2023-04-28T07:07:03;96969.28;;;12.73;100.00
4814;BME280;15375;48.540;9.268;2023-04-28T07:09:33;96969.63;;;12.75;100.00
4814;BME280;15375;48.540;9.268;2023-04-28T07:11:59;96966.88;;;12.75;100.00
4814;BME280;15375;48.540;9.268;2023-04-28T07:14:24;96986.47;;;12.86;100.00
4814;BME280;15375;48.540;9.268;2023-04-28T07:16:49;96963.59;;;12.67;100.00
4814;BME280;15375;48.540;9.268;2023-04-28T07:19:15;96977.38;;;12.76;100.00
4814;BME280;15375;48.540;9.268;2023-04-28T07:21:40;96966.44;;;12.64;100.00
4814;BME280;15375;48.540;9.268;2023-04-28T07:24:06;96981.66;;;12.77;100.00
4814;BME280;15375;48.540;9.268;2023-04-28T07:26:32;96979.69;;;12.78;100.00
4814;BME280;15375;48.540;9.268;2023-04-28T07:28:57;96973.44;;;12.77;100.00
4814;BME280;15375;48.540;9.268;2023-04-28T07:31:23;96960.75;;;12.71;100.00
4814;BME280;15375;48.540;9.268;2023-04-28T07:33:48;96977.25;;;12.80;100.00
4814;BME280;15375;48.540;9.268;2023-04-28T07:36:14;96975.16;;;12.84;100.00
4814;BME280;15375;48.540;9.268;2023-04-28T07:38:39;96976.94;;;12.91;100.00
4814;BME280;15375;48.540;9.268;2023-04-28T07:41:05;96968.41;;;12.89;100.00
4814;BME280;15375;48.540;9.268;2023-04-28T07:43:30;96967.19;;;12.90;100.00
4814;BME280;15375;48.540;9.268;2023-04-28T07:45:56;96970.91;;;12.83;100.00
4814;BME280;15375;48.540;9.268;2023-04-28T07:48:22;96971.97;;;12.98;100.00
4814;BME280;15375;48.540;9.268;2023-04-28T07:50:47;96970.75;;;12.99;100.00
4814;BME280;15375;48.540;9.268;2023-04-28T07:53:12;96978.78;;;13.06;100.00
4814;BME280;15375;48.540;9.268;2023-04-28T07:55:38;96980.84;;;13.02;100.00
4814;BME280;15375;48.540;9.268;2023-04-28T07:58:06;96977.13;;;12.96;100.00
4814;BME280;15375;48.540;9.268;2023-04-28T08:00:32;96979.19;;;13.05;100.00
4814;BME280;15375;48.540;9.268;2023-04-28T08:02:57;96979.53;;;12.94;100.00
4814;BME280;15375;48.540;9.268;2023-04-28T08:05:22;96970.75;;;12.99;100.00
4814;BME280;15375;48.540;9.268;2023-04-28T08:07:48;96972.31;;;13.00;100.00
4814;BME280;15375;48.540;9.268;2023-04-28T08:10:13;96955.56;;;12.98;100.00
4814;BME280;15375;48.540;9.268;2023-04-28T08:12:38;96971.66;;;13.09;100.00
4814;BME280;15375;48.540;9.268;2023-04-28T08:15:05;96981.16;;;13.04;100.00
4814;BME280;15375;48.540;9.268;2023-04-28T08:17:31;96968.94;;;12.84;100.00
4814;BME280;15375;48.540;9.268;2023-04-28T08:19:57;96980.19;;;12.98;100.00
4814;BME280;15375;48.540;9.268;2023-04-28T08:22:22;96992.03;;;13.08;100.00
4814;BME280;15375;48.540;9.268;2023-04-28T08:24:48;96992.34;;;13.10;100.00
4814;BME280;15375;48.540;9.268;2023-04-28T08:27:13;96989.38;;;13.04;100.00
4814;BME280;15375;48.540;9.268;2023-04-28T08:29:39;97003.50;;;13.15;100.00
4814;BME280;15375;48.540;9.268;2023-04-28T08:32:04;96985.78;;;13.07;100.00
4814;BME280;15375;48.540;9.268;2023-04-28T08:34:33;97012.03;;;13.17;100.00
4814;BME280;15375;48.540;9.268;2023-04-28T08:36:59;97006.91;;;13.07;100.00
4814;BME280;15375;48.540;9.268;2023-04-28T08:39:25;97006.69;;;13.14;100.00
4814;BME280;15375;48.540;9.268;2023-04-28T08:41:52;97010.19;;;13.14;100.00
4814;BME280;15375;48.540;9.268;2023-04-28T08:44:18;97023.00;;;13.17;100.00
4814;BME280;15375;48.540;9.268;2023-04-28T08:46:45;97028.16;;;13.15;100.00
4814;BME280;15375;48.540;9.268;2023-04-28T08:49:13;97032.19;;;13.23;100.00
4814;BME280;15375;48.540;9.268;2023-04-28T08:51:55;97035.00;;;13.32;100.00
4814;BME280;15375;48.540;9.268;2023-04-28T08:54:22;97020.38;;;13.26;100.00
4814;BME280;15375;48.540;9.268;2023-04-28T08:56:49;97023.16;;;13.35;100.00
4814;BME280;15375;48.540;9.268;2023-04-28T08:59:16;96994.63;;;13.24;100.00
4814;BME280;15375;48.540;9.268;2023-04-28T09:01:42;97020.84;;;13.47;100.00
4814;BME280;15375;48.540;9.268;2023-04-28T09:04:08;97033.97;;;13.52;100.00
4814;BME280;15375;48.540;9.268;2023-04-28T09:06:36;97035.50;;;13.53;100.00
4814;BME280;15375;48.540;9.268;2023-04-28T09:09:37;97039.59;;;13.70;100.00
4814;BME280;15375;48.540;9.268;2023-04-28T09:12:03;97033.84;;;13.55;100.00
4814;BME280;15375;48.540;9.268;2023-04-28T09:14:36;97045.25;;;13.54;100.00
4814;BME280;15375;48.540;9.268;2023-04-28T09:17:02;97050.38;;;13.64;100.00
4814;BME280;15375;48.540;9.268;2023-04-28T09:19:34;97049.25;;;13.74;100.00
4814;BME280;15375;48.540;9.268;2023-04-28T09:22:04;97052.03;;;13.83;100.00
4814;BME280;15375;48.540;9.268;2023-04-28T09:24:34;97050.03;;;13.96;100.00
4814;BME280;15375;48.540;9.268;2023-04-28T09:27:02;97040.56;;;13.76;100.00
4814;BME280;15375;48.540;9.268;2023-04-28T09:29:28;97041.38;;;13.64;100.00
4814;BME280;15375;48.540;9.268;2023-04-28T09:32:11;97046.25;;;13.81;100.00
4814;BME280;15375;48.540;9.268;2023-04-28T09:34:50;97054.00;;;13.83;100.00
4814;BME280;15375;48.540;9.268;2023-04-28T09:37:18;97061.09;;;13.93;100.00
4814;BME280;15375;48.540;9.268;2023-04-28T09:39:48;97047.59;;;13.98;100.00
4814;BME280;15375;48.540;9.268;2023-04-28T09:42:42;97058.03;;;14.13;100.00
4814;BME280;15375;48.540;9.268;2023-04-28T09:45:10;97067.38;;;14.37;100.00
4814;BME280;15375;48.540;9.268;2023-04-28T09:47:38;97038.91;;;14.43;100.00
4814;BME280;15375;48.540;9.268;2023-04-28T09:50:06;97050.25;;;14.33;100.00
4814;BME280;15375;48.540;9.268;2023-04-28T09:52:41;97066.06;;;14.50;100.00
4814;BME280;15375;48.540;9.268;2023-04-28T09:55:07;97049.59;;;14.50;100.00
4814;BME280;15375;48.540;9.268;2023-04-28T09:57:34;97066.03;;;14.72;100.00
4814;BME280;15375;48.540;9.268;2023-04-28T10:00:01;97056.53;;;14.95;100.00
4814;BME280;15375;48.540;9.268;2023-04-28T10:02:30;97046.72;;;14.85;100.00
4814;BME280;15375;48.540;9.268;2023-04-28T10:04:56;97033.31;;;14.96;100.00
4814;BME280;15375;48.540;9.268;2023-04-28T10:07:21;97058.44;;;15.25;100.00
4814;BME280;15375;48.540;9.268;2023-04-28T10:09:48;97064.22;;;15.27;100.00
4814;BME280;15375;48.540;9.268;2023-04-28T10:12:19;97066.22;;;15.26;100.00
4814;BME280;15375;48.540;9.268;2023-04-28T10:14:46;97074.97;;;15.43;100.00
4814;BME280;15375;48.540;9.268;2023-04-28T10:17:14;97071.59;;;15.39;100.00
4814;BME280;15375;48.540;9.268;2023-04-28T10:19:41;97039.22;;;15.34;100.00
4814;BME280;15375;48.540;9.268;2023-04-28T10:25:32;97061.44;;;16.03;100.00
4814;BME280;15375;48.540;9.268;2023-04-28T10:27:59;97072.72;;;16.14;100.00
4814;BME280;15375;48.540;9.268;2023-04-28T10:30:26;97068.28;;;16.17;100.00
4814;BME280;15375;48.540;9.268;2023-04-28T10:40:33;97054.88;;;16.70;100.00
4814;BME280;15375;48.540;9.268;2023-04-28T10:42:59;97060.00;;;16.53;100.00
4814;BME280;15375;48.540;9.268;2023-04-28T10:56:26;97057.06;;;16.47;100.00
4814;BME280;15375;48.540;9.268;2023-04-28T10:58:56;97062.16;;;16.31;100.00
4814;BME280;15375;48.540;9.268;2023-04-28T11:01:29;97056.03;;;16.36;100.00
4814;BME280;15375;48.540;9.268;2023-04-28T11:04:05;97061.09;;;16.28;100.00
4814;BME280;15375;48.540;9.268;2023-04-28T11:06:43;97058.47;;;16.34;100.00
4814;BME280;15375;48.540;9.268;2023-04-28T11:16:55;97034.31;;;17.69;100.00
4814;BME280;15375;48.540;9.268;2023-04-28T11:19:24;97021.59;;;17.24;100.00
4814;BME280;15375;48.540;9.268;2023-04-28T11:21:52;97036.84;;;17.58;100.00
4814;BME280;15375;48.540;9.268;2023-04-28T11:24:18;97029.00;;;17.33;100.00
4814;BME280;15375;48.540;9.268;2023-04-28T11:26:44;97049.00;;;17.42;100.00
4814;BME280;15375;48.540;9.268;2023-04-28T11:29:11;97045.69;;;17.38;100.00
4814;BME280;15375;48.540;9.268;2023-04-28T11:31:37;97051.34;;;17.35;100.00
4814;BME280;15375;48.540;9.268;2023-04-28T11:34:04;97026.47;;;16.96;100.00
4814;BME280;15375;48.540;9.268;2023-04-28T11:36:35;97028.19;;;16.94;100.00
4814;BME280;15375;48.540;9.268;2023-04-28T11:39:06;97019.56;;;17.01;100.00
4814;BME280;15375;48.540;9.268;2023-04-28T11:41:33;97035.44;;;17.06;100.00
4814;BME280;15375;48.540;9.268;2023-04-28T11:44:00;97048.78;;;17.31;100.00
4814;BME280;15375;48.540;9.268;2023-04-28T11:46:25;97033.75;;;17.32;100.00
4814;BME280;15375;48.540;9.268;2023-04-28T11:49:04;97043.03;;;17.44;100.00
4814;BME280;15375;48.540;9.268;2023-04-28T11:51:35;97035.03;;;17.22;100.00
4814;BME280;15375;48.540;9.268;2023-04-28T11:54:02;97047.22;;;17.39;100.00
4814;BME280;15375;48.540;9.268;2023-04-28T11:56:28;97040.84;;;17.48;100.00
4814;BME280;15375;48.540;9.268;2023-04-28T12:01:26;97028.66;;;17.40;100.00
4814;BME280;15375;48.540;9.268;2023-04-28T12:03:51;96997.91;;;17.32;100.00
4814;BME280;15375;48.540;9.268;2023-04-28T12:06:17;97031.59;;;17.60;100.00
4814;BME280;15375;48.540;9.268;2023-04-28T12:08:46;97021.63;;;17.39;100.00
4814;BME280;15375;48.540;9.268;2023-04-28T12:11:12;97030.50;;;17.66;100.00
4814;BME280;15375;48.540;9.268;2023-04-28T12:13:38;97021.34;;;17.60;100.00
4814;BME280;15375;48.540;9.268;2023-04-28T12:16:05;97039.63;;;17.72;100.00
4814;BME280;15375;48.540;9.268;2023-04-28T12:18:36;97016.88;;;17.63;100.00
4814;BME280;15375;48.540;9.268;2023-04-28T12:21:03;97026.59;;;17.73;100.00
4814;BME280;15375;48.540;9.268;2023-04-28T12:23:34;97026.81;;;17.69;100.00
4814;BME280;15375;48.540;9.268;2023-04-28T12:26:01;97034.81;;;17.82;100.00
4814;BME280;15375;48.540;9.268;2023-04-28T12:28:39;97033.47;;;17.77;100.00
4814;BME280;15375;48.540;9.268;2023-04-28T12:31:07;97033.34;;;17.48;100.00
4814;BME280;15375;48.540;9.268;2023-04-28T12:33:33;97024.38;;;17.39;100.00
4814;BME280;15375;48.540;9.268;2023-04-28T12:36:02;97035.41;;;17.62;100.00
4814;BME280;15375;48.540;9.268;2023-04-28T12:38:28;97040.03;;;17.80;100.00
4814;BME280;15375;48.540;9.268;2023-04-28T12:40:54;97031.28;;;17.67;99.82
4814;BME280;15375;48.540;9.268;2023-04-28T12:43:20;97031.34;;;17.72;99.77
4814;BME280;15375;48.540;9.268;2023-04-28T12:45:48;97029.38;;;17.73;98.37
4814;BME280;15375;48.540;9.268;2023-04-28T12:48:14;97034.06;;;17.81;98.92
4814;BME280;15375;48.540;9.268;2023-04-28T12:50:39;97026.59;;;17.73;98.63
4814;BME280;15375;48.540;9.268;2023-04-28T12:53:05;97027.63;;;17.61;99.77
4814;BME280;15375;48.540;9.268;2023-04-28T12:55:30;97028.56;;;17.58;99.74
4814;BME280;15375;48.540;9.268;2023-04-28T12:57:55;97029.66;;;17.51;100.00
4814;BME280;15375;48.540;9.268;2023-04-28T13:00:21;97030.09;;;17.59;99.99
4814;BME280;15375;48.540;9.268;2023-04-28T13:02:49;97007.56;;;17.60;99.64
4814;BME280;15375;48.540;9.268;2023-04-28T13:05:15;97003.22;;;17.83;97.92
4814;BME280;15375;48.540;9.268;2023-04-28T13:07:41;97015.25;;;17.95;96.52
4814;BME280;15375;48.540;9.268;2023-04-28T13:10:07;97002.03;;;18.13;97.08
4814;BME280;15375;48.540;9.268;2023-04-28T13:12:33;97007.66;;;18.33;99.23
4814;BME280;15375;48.540;9.268;2023-04-28T13:15:01;96992.50;;;18.43;96.98
4814;BME280;15375;48.540;9.268;2023-04-28T13:17:28;97021.09;;;18.70;94.04
4814;BME280;15375;48.540;9.268;2023-04-28T13:19:56;97007.28;;;18.70;92.82
4814;BME280;15375;48.540;9.268;2023-04-28T13:22:22;96994.97;;;18.85;93.56
4814;BME280;15375;48.540;9.268;2023-04-28T13:24:47;97000.50;;;18.71;95.37
4814;BME280;15375;48.540;9.268;2023-04-28T13:27:13;97013.94;;;18.78;93.22
4814;BME280;15375;48.540;9.268;2023-04-28T13:29:38;97010.13;;;18.46;90.81